sensor_id;sensor_type;location;lat;lon;timestamp;P1;durP1;ratioP1;P2;durP2;ratioP2
85001;SDS011;75323;31.624;-8.002;2024-03-25T00:00:09;8.55;;;4.45;;
85001;SDS011;75323;31.624;-8.002;2024-03-25T00:02:37;7.95;;;3.97;;
85001;SDS011;75323;31.624;-8.002;2024-03-25T00:05:03;10.32;;;5.25;;
85001;SDS011;75323;31.624;-8.002;2024-03-25T00:07:30;11.77;;;6.43;;
85001;SDS011;75323;31.624;-8.002;2024-03-25T00:09:58;8.23;;;5.97;;
85001;SDS011;75323;31.624;-8.002;2024-03-25T00:12:25;6.25;;;4.95;;
85001;SDS011;75323;31.624;-8.002;2024-03-25T00:14:51;6.68;;;5.15;;
85001;SDS011;75323;31.624;-8.002;2024-03-25T00:17:17;10.05;;;5.53;;
85001;SDS011;75323;31.624;-8.002;2024-03-25T00:19:45;12.65;;;5.65;;
85001;SDS011;75323;31.624;-8.002;2024-03-25T00:24:42;7.90;;;5.47;;
85001;SDS011;75323;31.624;-8.002;2024-03-25T00:27:07;8.50;;;4.93;;
85001;SDS011;75323;31.624;-8.002;2024-03-25T00:29:33;9.38;;;5.78;;
85001;SDS011;75323;31.624;-8.002;2024-03-25T00:31:59;8.75;;;5.60;;
85001;SDS011;75323;31.624;-8.002;2024-03-25T00:34:24;10.05;;;5.75;;
85001;SDS011;75323;31.624;-8.002;2024-03-25T00:36:50;11.70;;;5.90;;
85001;SDS011;75323;31.624;-8.002;2024-03-25T00:39:16;7.35;;;5.35;;
85001;SDS011;75323;31.624;-8.002;2024-03-25T00:41:42;9.02;;;3.42;;
85001;SDS011;75323;31.624;-8.002;2024-03-25T00:44:08;9.38;;;5.40;;
85001;SDS011;75323;31.624;-8.002;2024-03-25T00:46:34;10.35;;;5.05;;
85001;SDS011;75323;31.624;-8.002;2024-03-25T00:49:00;9.35;;;4.40;;
85001;SDS011;75323;31.624;-8.002;2024-03-25T00:51:25;10.10;;;5.45;;
85001;SDS011;75323;31.624;-8.002;2024-03-25T00:53:51;8.95;;;3.55;;
85001;SDS011;75323;31.624;-8.002;2024-03-25T00:56:17;9.40;;;4.47;;
85001;SDS011;75323;31.624;-8.002;2024-03-25T00:58:43;11.73;;;4.53;;
85001;SDS011;75323;31.624;-8.002;2024-03-25T01:01:11;9.50;;;4.45;;
85001;SDS011;75323;31.624;-8.002;2024-03-25T01:03:37;9.10;;;5.00;;
85001;SDS011;75323;31.624;-8.002;2024-03-25T01:06:03;8.50;;;5.20;;
85001;SDS011;75323;31.624;-8.002;2024-03-25T01:08:29;9.20;;;5.72;;
85001;SDS011;75323;31.624;-8.002;2024-03-25T01:10:55;11.38;;;3.83;;
85001;SDS011;75323;31.624;-8.002;2024-03-25T01:13:21;10.80;;;5.10;;
85001;SDS011;75323;31.624;-8.002;2024-03-25T01:15:47;11.60;;;6.13;;
85001;SDS011;75323;31.624;-8.002;2024-03-25T01:18:12;8.25;;;5.55;;
85001;SDS011;75323;31.624;-8.002;2024-03-25T01:20:38;13.65;;;4.40;;
85001;SDS011;75323;31.624;-8.002;2024-03-25T01:23:04;8.10;;;4.70;;
85001;SDS011;75323;31.624;-8.002;2024-03-25T01:25:30;8.32;;;3.55;;
85001;SDS011;75323;31.624;-8.002;2024-03-25T01:27:56;6.45;;;4.90;;
85001;SDS011;75323;31.624;-8.002;2024-03-25T01:30:22;10.77;;;5.25;;
85001;SDS011;75323;31.624;-8.002;2024-03-25T01:32:47;12.18;;;5.50;;
85001;SDS011;75323;31.624;-8.002;2024-03-25T01:35:14;8.48;;;4.68;;
85001;SDS011;75323;31.624;-8.002;2024-03-25T01:37:41;7.38;;;5.40;;
85001;SDS011;75323;31.624;-8.002;2024-03-25T01:40:07;8.43;;;6.00;;
85001;SDS011;75323;31.624;-8.002;2024-03-25T01:42:36;7.03;;;2.85;;
85001;SDS011;75323;31.624;-8.002;2024-03-25T01:45:02;8.10;;;3.58;;
85001;SDS011;75323;31.624;-8.002;2024-03-25T01:47:28;9.07;;;5.15;;
85001;SDS011;75323;31.624;-8.002;2024-03-25T01:49:57;8.52;;;5.25;;
85001;SDS011;75323;31.624;-8.002;2024-03-25T01:52:25;8.80;;;5.47;;
85001;SDS011;75323;31.624;-8.002;2024-03-25T01:54:52;12.75;;;5.75;;
85001;SDS011;75323;31.624;-8.002;2024-03-25T01:57:18;9.65;;;5.43;;
85001;SDS011;75323;31.624;-8.002;2024-03-25T01:59:44;7.90;;;5.28;;
85001;SDS011;75323;31.624;-8.002;2024-03-25T02:02:10;8.10;;;5.40;;
85001;SDS011;75323;31.624;-8.002;2024-03-25T02:04:37;13.90;;;4.97;;
85001;SDS011;75323;31.624;-8.002;2024-03-25T02:07:05;7.07;;;3.50;;
85001;SDS011;75323;31.624;-8.002;2024-03-25T02:09:33;8.45;;;5.10;;
85001;SDS011;75323;31.624;-8.002;2024-03-25T02:12:00;12.10;;;6.65;;
85001;SDS011;75323;31.624;-8.002;2024-03-25T02:14:26;11.65;;;4.85;;
85001;SDS011;75323;31.624;-8.002;2024-03-25T02:16:52;6.60;;;3.95;;
85001;SDS011;75323;31.624;-8.002;2024-03-25T02:19:18;9.45;;;4.88;;
85001;SDS011;75323;31.624;-8.002;2024-03-25T02:21:45;8.93;;;5.18;;
85001;SDS011;75323;31.624;-8.002;2024-03-25T02:24:11;9.15;;;6.13;;
85001;SDS011;75323;31.624;-8.002;2024-03-25T02:26:37;8.80;;;4.70;;
85001;SDS011;75323;31.624;-8.002;2024-03-25T02:29:03;9.57;;;5.07;;
85001;SDS011;75323;31.624;-8.002;2024-03-25T02:31:29;8.13;;;4.10;;
85001;SDS011;75323;31.624;-8.002;2024-03-25T02:33:58;7.55;;;4.53;;
85001;SDS011;75323;31.624;-8.002;2024-03-25T02:36:23;8.18;;;5.35;;
85001;SDS011;75323;31.624;-8.002;2024-03-25T02:38:49;9.23;;;4.43;;
85001;SDS011;75323;31.624;-8.002;2024-03-25T02:41:15;7.10;;;4.38;;
85001;SDS011;75323;31.624;-8.002;2024-03-25T02:43:41;8.07;;;5.32;;
85001;SDS011;75323;31.624;-8.002;2024-03-25T02:46:07;13.23;;;5.72;;
85001;SDS011;75323;31.624;-8.002;2024-03-25T02:48:33;6.60;;;5.03;;
85001;SDS011;75323;31.624;-8.002;2024-03-25T02:50:59;7.88;;;4.45;;
85001;SDS011;75323;31.624;-8.002;2024-03-25T02:53:24;8.68;;;4.50;;
85001;SDS011;75323;31.624;-8.002;2024-03-25T02:55:51;7.40;;;5.28;;
85001;SDS011;75323;31.624;-8.002;2024-03-25T02:58:16;7.93;;;4.90;;
85001;SDS011;75323;31.624;-8.002;2024-03-25T03:00:42;6.88;;;4.70;;
85001;SDS011;75323;31.624;-8.002;2024-03-25T03:03:08;10.27;;;3.47;;
85001;SDS011;75323;31.624;-8.002;2024-03-25T03:05:34;6.28;;;4.00;;
85001;SDS011;75323;31.624;-8.002;2024-03-25T03:08:00;10.55;;;5.43;;
85001;SDS011;75323;31.624;-8.002;2024-03-25T03:10:26;7.35;;;3.80;;
85001;SDS011;75323;31.624;-8.002;2024-03-25T03:12:52;7.25;;;4.93;;
85001;SDS011;75323;31.624;-8.002;2024-03-25T03:15:17;10.02;;;3.78;;
85001;SDS011;75323;31.624;-8.002;2024-03-25T03:17:43;10.20;;;4.93;;
85001;SDS011;75323;31.624;-8.002;2024-03-25T03:20:09;11.05;;;4.28;;
85001;SDS011;75323;31.624;-8.002;2024-03-25T03:22:36;6.78;;;5.10;;
85001;SDS011;75323;31.624;-8.002;2024-03-25T03:25:02;12.27;;;4.65;;
85001;SDS011;75323;31.624;-8.002;2024-03-25T03:27:29;9.23;;;4.55;;
85001;SDS011;75323;31.624;-8.002;2024-03-25T03:29:55;7.93;;;5.32;;
85001;SDS011;75323;31.624;-8.002;2024-03-25T03:32:21;8.95;;;4.82;;
85001;SDS011;75323;31.624;-8.002;2024-03-25T03:34:47;8.63;;;3.45;;
85001;SDS011;75323;31.624;-8.002;2024-03-25T03:37:13;6.60;;;4.43;;
85001;SDS011;75323;31.624;-8.002;2024-03-25T03:39:39;8.98;;;5.50;;
85001;SDS011;75323;31.624;-8.002;2024-03-25T03:42:04;7.55;;;5.22;;
85001;SDS011;75323;31.624;-8.002;2024-03-25T03:44:30;6.47;;;3.75;;
85001;SDS011;75323;31.624;-8.002;2024-03-25T03:46:56;8.82;;;4.75;;
85001;SDS011;75323;31.624;-8.002;2024-03-25T03:49:22;8.57;;;4.07;;
85001;SDS011;75323;31.624;-8.002;2024-03-25T03:51:47;8.20;;;4.20;;
85001;SDS011;75323;31.624;-8.002;2024-03-25T03:54:13;12.45;;;4.05;;
85001;SDS011;75323;31.624;-8.002;2024-03-25T03:56:39;7.88;;;5.13;;
85001;SDS011;75323;31.624;-8.002;2024-03-25T03:59:05;8.60;;;4.10;;
85001;SDS011;75323;31.624;-8.002;2024-03-25T04:01:30;9.60;;;4.97;;
85001;SDS011;75323;31.624;-8.002;2024-03-25T04:03:56;6.82;;;4.60;;
85001;SDS011;75323;31.624;-8.002;2024-03-25T04:06:22;10.18;;;3.75;;
85001;SDS011;75323;31.624;-8.002;2024-03-25T04:08:48;9.88;;;4.20;;
85001;SDS011;75323;31.624;-8.002;2024-03-25T04:11:14;6.78;;;4.30;;
85001;SDS011;75323;31.624;-8.002;2024-03-25T04:13:40;8.90;;;4.43;;
85001;SDS011;75323;31.624;-8.002;2024-03-25T04:16:06;8.52;;;2.70;;
85001;SDS011;75323;31.624;-8.002;2024-03-25T04:18:32;6.97;;;4.60;;
85001;SDS011;75323;31.624;-8.002;2024-03-25T04:20:58;11.23;;;4.50;;
85001;SDS011;75323;31.624;-8.002;2024-03-25T04:23:25;9.77;;;4.03;;
85001;SDS011;75323;31.624;-8.002;2024-03-25T04:25:51;6.13;;;5.40;;
85001;SDS011;75323;31.624;-8.002;2024-03-25T04:28:17;7.78;;;4.68;;
85001;SDS011;75323;31.624;-8.002;2024-03-25T04:30:50;13.32;;;4.65;;
85001;SDS011;75323;31.624;-8.002;2024-03-25T04:33:16;9.27;;;4.13;;
85001;SDS011;75323;31.624;-8.002;2024-03-25T04:35:42;10.20;;;5.95;;
85001;SDS011;75323;31.624;-8.002;2024-03-25T04:38:08;7.25;;;4.53;;
85001;SDS011;75323;31.624;-8.002;2024-03-25T04:40:35;12.55;;;5.15;;
85001;SDS011;75323;31.624;-8.002;2024-03-25T04:43:01;11.00;;;5.63;;
85001;SDS011;75323;31.624;-8.002;2024-03-25T04:45:27;10.90;;;5.22;;
85001;SDS011;75323;31.624;-8.002;2024-03-25T04:47:53;9.38;;;5.55;;
85001;SDS011;75323;31.624;-8.002;2024-03-25T04:50:20;9.40;;;5.60;;
85001;SDS011;75323;31.624;-8.002;2024-03-25T04:52:46;12.25;;;5.55;;
85001;SDS011;75323;31.624;-8.002;2024-03-25T04:55:12;12.55;;;5.28;;
85001;SDS011;75323;31.624;-8.002;2024-03-25T04:57:37;10.27;;;5.90;;
85001;SDS011;75323;31.624;-8.002;2024-03-25T05:00:03;8.88;;;5.78;;
85001;SDS011;75323;31.624;-8.002;2024-03-25T05:02:30;10.23;;;5.03;;
85001;SDS011;75323;31.624;-8.002;2024-03-25T05:04:55;9.32;;;5.85;;
85001;SDS011;75323;31.624;-8.002;2024-03-25T05:07:21;10.93;;;5.55;;
85001;SDS011;75323;31.624;-8.002;2024-03-25T05:09:47;8.45;;;5.13;;
85001;SDS011;75323;31.624;-8.002;2024-03-25T05:12:13;10.60;;;6.00;;
85001;SDS011;75323;31.624;-8.002;2024-03-25T05:14:38;8.70;;;5.28;;
85001;SDS011;75323;31.624;-8.002;2024-03-25T05:17:04;11.55;;;5.53;;
85001;SDS011;75323;31.624;-8.002;2024-03-25T05:19:32;9.07;;;6.68;;
85001;SDS011;75323;31.624;-8.002;2024-03-25T05:21:58;6.88;;;4.68;;
85001;SDS011;75323;31.624;-8.002;2024-03-25T05:24:24;10.35;;;5.57;;
85001;SDS011;75323;31.624;-8.002;2024-03-25T05:26:49;14.75;;;7.00;;
85001;SDS011;75323;31.624;-8.002;2024-03-25T05:29:15;11.43;;;6.22;;
85001;SDS011;75323;31.624;-8.002;2024-03-25T05:31:54;8.65;;;5.78;;
85001;SDS011;75323;31.624;-8.002;2024-03-25T05:34:22;12.55;;;6.63;;
85001;SDS011;75323;31.624;-8.002;2024-03-25T05:36:48;15.35;;;6.15;;
85001;SDS011;75323;31.624;-8.002;2024-03-25T05:39:14;10.40;;;6.55;;
85001;SDS011;75323;31.624;-8.002;2024-03-25T05:41:40;10.57;;;6.22;;
85001;SDS011;75323;31.624;-8.002;2024-03-25T05:44:05;13.93;;;5.75;;
85001;SDS011;75323;31.624;-8.002;2024-03-25T05:46:31;9.30;;;6.45;;
85001;SDS011;75323;31.624;-8.002;2024-03-25T05:48:57;10.65;;;5.32;;
85001;SDS011;75323;31.624;-8.002;2024-03-25T05:51:23;10.15;;;6.10;;
85001;SDS011;75323;31.624;-8.002;2024-03-25T05:53:48;13.15;;;7.32;;
85001;SDS011;75323;31.624;-8.002;2024-03-25T05:56:14;8.63;;;4.82;;
85001;SDS011;75323;31.624;-8.002;2024-03-25T05:58:40;13.95;;;8.32;;
85001;SDS011;75323;31.624;-8.002;2024-03-25T06:01:06;16.42;;;6.45;;
85001;SDS011;75323;31.624;-8.002;2024-03-25T06:03:32;11.48;;;6.00;;
85001;SDS011;75323;31.624;-8.002;2024-03-25T06:05:58;12.43;;;6.30;;
85001;SDS011;75323;31.624;-8.002;2024-03-25T06:08:24;14.73;;;7.40;;
85001;SDS011;75323;31.624;-8.002;2024-03-25T06:10:50;11.50;;;5.28;;
85001;SDS011;75323;31.624;-8.002;2024-03-25T06:13:19;14.35;;;7.18;;
85001;SDS011;75323;31.624;-8.002;2024-03-25T06:15:45;13.80;;;6.88;;
85001;SDS011;75323;31.624;-8.002;2024-03-25T06:18:11;13.77;;;6.82;;
85001;SDS011;75323;31.624;-8.002;2024-03-25T06:20:36;15.90;;;7.82;;
85001;SDS011;75323;31.624;-8.002;2024-03-25T06:23:02;14.45;;;7.95;;
85001;SDS011;75323;31.624;-8.002;2024-03-25T06:25:29;13.38;;;7.50;;
85001;SDS011;75323;31.624;-8.002;2024-03-25T06:27:55;13.43;;;7.53;;
85001;SDS011;75323;31.624;-8.002;2024-03-25T06:30:20;14.73;;;8.10;;
85001;SDS011;75323;31.624;-8.002;2024-03-25T06:33:05;12.13;;;7.32;;
85001;SDS011;75323;31.624;-8.002;2024-03-25T06:35:49;12.10;;;6.28;;
85001;SDS011;75323;31.624;-8.002;2024-03-25T06:38:15;14.15;;;7.57;;
85001;SDS011;75323;31.624;-8.002;2024-03-25T06:40:40;16.27;;;7.32;;
85001;SDS011;75323;31.624;-8.002;2024-03-25T06:43:07;16.80;;;8.15;;
85001;SDS011;75323;31.624;-8.002;2024-03-25T06:45:32;21.77;;;8.82;;
85001;SDS011;75323;31.624;-8.002;2024-03-25T06:47:58;14.30;;;8.63;;
85001;SDS011;75323;31.624;-8.002;2024-03-25T06:50:24;16.65;;;8.88;;
85001;SDS011;75323;31.624;-8.002;2024-03-25T06:52:50;16.45;;;10.00;;
85001;SDS011;75323;31.624;-8.002;2024-03-25T06:55:16;17.13;;;8.10;;
85001;SDS011;75323;31.624;-8.002;2024-03-25T06:57:42;18.38;;;9.75;;
85001;SDS011;75323;31.624;-8.002;2024-03-25T07:00:08;19.98;;;9.30;;
85001;SDS011;75323;31.624;-8.002;2024-03-25T07:02:41;16.58;;;9.05;;
85001;SDS011;75323;31.624;-8.002;2024-03-25T07:05:07;21.90;;;10.00;;
85001;SDS011;75323;31.624;-8.002;2024-03-25T07:07:33;23.00;;;9.82;;
85001;SDS011;75323;31.624;-8.002;2024-03-25T07:09:59;18.48;;;8.95;;
85001;SDS011;75323;31.624;-8.002;2024-03-25T07:12:25;17.88;;;10.05;;
85001;SDS011;75323;31.624;-8.002;2024-03-25T07:14:51;18.90;;;9.85;;
85001;SDS011;75323;31.624;-8.002;2024-03-25T07:17:17;24.55;;;12.02;;
85001;SDS011;75323;31.624;-8.002;2024-03-25T07:19:43;17.73;;;9.25;;
85001;SDS011;75323;31.624;-8.002;2024-03-25T07:22:10;17.85;;;10.10;;
85001;SDS011;75323;31.624;-8.002;2024-03-25T07:24:36;21.80;;;9.93;;
85001;SDS011;75323;31.624;-8.002;2024-03-25T07:27:01;20.48;;;11.23;;
85001;SDS011;75323;31.624;-8.002;2024-03-25T07:29:27;18.08;;;10.68;;
85001;SDS011;75323;31.624;-8.002;2024-03-25T07:31:53;19.75;;;10.50;;
85001;SDS011;75323;31.624;-8.002;2024-03-25T07:34:19;16.55;;;8.93;;
85001;SDS011;75323;31.624;-8.002;2024-03-25T07:36:45;16.13;;;8.52;;
85001;SDS011;75323;31.624;-8.002;2024-03-25T07:39:10;15.13;;;8.23;;
85001;SDS011;75323;31.624;-8.002;2024-03-25T07:41:39;20.92;;;9.15;;
85001;SDS011;75323;31.624;-8.002;2024-03-25T07:44:07;18.23;;;11.00;;
85001;SDS011;75323;31.624;-8.002;2024-03-25T07:46:33;19.48;;;11.48;;
85001;SDS011;75323;31.624;-8.002;2024-03-25T07:48:59;22.95;;;11.82;;
85001;SDS011;75323;31.624;-8.002;2024-03-25T07:51:25;18.95;;;10.30;;
85001;SDS011;75323;31.624;-8.002;2024-03-25T07:53:50;18.92;;;8.38;;
85001;SDS011;75323;31.624;-8.002;2024-03-25T07:56:16;21.80;;;11.43;;
85001;SDS011;75323;31.624;-8.002;2024-03-25T07:58:42;25.45;;;12.05;;
85001;SDS011;75323;31.624;-8.002;2024-03-25T08:01:08;19.35;;;11.05;;
85001;SDS011;75323;31.624;-8.002;2024-03-25T08:03:33;19.88;;;10.48;;
85001;SDS011;75323;31.624;-8.002;2024-03-25T08:05:59;22.38;;;12.55;;
85001;SDS011;75323;31.624;-8.002;2024-03-25T08:08:25;21.88;;;11.40;;
85001;SDS011;75323;31.624;-8.002;2024-03-25T08:10:52;21.30;;;13.00;;
85001;SDS011;75323;31.624;-8.002;2024-03-25T08:13:18;23.20;;;12.30;;
85001;SDS011;75323;31.624;-8.002;2024-03-25T08:15:45;23.27;;;13.35;;
85001;SDS011;75323;31.624;-8.002;2024-03-25T08:18:11;25.40;;;12.35;;
85001;SDS011;75323;31.624;-8.002;2024-03-25T08:20:37;31.60;;;11.90;;
85001;SDS011;75323;31.624;-8.002;2024-03-25T08:23:03;26.33;;;15.40;;
85001;SDS011;75323;31.624;-8.002;2024-03-25T08:25:30;25.17;;;13.65;;
85001;SDS011;75323;31.624;-8.002;2024-03-25T08:27:57;30.17;;;13.38;;
85001;SDS011;75323;31.624;-8.002;2024-03-25T08:30:23;23.50;;;11.32;;
85001;SDS011;75323;31.624;-8.002;2024-03-25T08:32:49;26.38;;;12.43;;
85001;SDS011;75323;31.624;-8.002;2024-03-25T08:35:15;20.40;;;10.45;;
85001;SDS011;75323;31.624;-8.002;2024-03-25T08:37:41;32.08;;;12.07;;
85001;SDS011;75323;31.624;-8.002;2024-03-25T08:40:07;27.98;;;11.38;;
85001;SDS011;75323;31.624;-8.002;2024-03-25T08:42:34;20.15;;;10.45;;
85001;SDS011;75323;31.624;-8.002;2024-03-25T08:45:00;26.45;;;9.00;;
85001;SDS011;75323;31.624;-8.002;2024-03-25T08:47:26;31.70;;;12.13;;
85001;SDS011;75323;31.624;-8.002;2024-03-25T08:49:52;22.17;;;10.45;;
85001;SDS011;75323;31.624;-8.002;2024-03-25T08:52:17;19.60;;;10.50;;
85001;SDS011;75323;31.624;-8.002;2024-03-25T08:54:43;25.55;;;10.27;;
85001;SDS011;75323;31.624;-8.002;2024-03-25T08:57:09;21.08;;;9.77;;
85001;SDS011;75323;31.624;-8.002;2024-03-25T08:59:35;17.27;;;8.48;;
85001;SDS011;75323;31.624;-8.002;2024-03-25T09:02:01;20.63;;;8.27;;
85001;SDS011;75323;31.624;-8.002;2024-03-25T09:04:26;21.10;;;9.10;;
85001;SDS011;75323;31.624;-8.002;2024-03-25T09:06:52;14.88;;;8.48;;
85001;SDS011;75323;31.624;-8.002;2024-03-25T09:09:18;23.90;;;9.68;;
85001;SDS011;75323;31.624;-8.002;2024-03-25T09:12:02;18.30;;;8.30;;
85001;SDS011;75323;31.624;-8.002;2024-03-25T09:14:28;18.90;;;8.52;;
85001;SDS011;75323;31.624;-8.002;2024-03-25T09:16:54;20.00;;;10.93;;
85001;SDS011;75323;31.624;-8.002;2024-03-25T09:19:19;15.18;;;9.68;;
85001;SDS011;75323;31.624;-8.002;2024-03-25T09:21:45;38.28;;;8.52;;
85001;SDS011;75323;31.624;-8.002;2024-03-25T09:24:11;18.02;;;8.95;;
85001;SDS011;75323;31.624;-8.002;2024-03-25T09:26:37;14.02;;;6.93;;
85001;SDS011;75323;31.624;-8.002;2024-03-25T09:29:02;13.23;;;6.35;;
85001;SDS011;75323;31.624;-8.002;2024-03-25T09:31:28;15.10;;;6.80;;
85001;SDS011;75323;31.624;-8.002;2024-03-25T09:33:54;15.90;;;6.65;;
85001;SDS011;75323;31.624;-8.002;2024-03-25T09:36:20;9.57;;;4.32;;
85001;SDS011;75323;31.624;-8.002;2024-03-25T09:38:45;12.00;;;5.93;;
85001;SDS011;75323;31.624;-8.002;2024-03-25T09:41:11;14.68;;;6.60;;
85001;SDS011;75323;31.624;-8.002;2024-03-25T09:46:25;11.50;;;5.70;;
85001;SDS011;75323;31.624;-8.002;2024-03-25T09:48:52;16.50;;;5.55;;
85001;SDS011;75323;31.624;-8.002;2024-03-25T09:51:19;7.65;;;4.05;;
85001;SDS011;75323;31.624;-8.002;2024-03-25T09:53:45;11.02;;;5.60;;
85001;SDS011;75323;31.624;-8.002;2024-03-25T09:56:12;12.30;;;4.82;;
85001;SDS011;75323;31.624;-8.002;2024-03-25T09:58:38;10.38;;;5.13;;
85001;SDS011;75323;31.624;-8.002;2024-03-25T10:01:04;14.27;;;4.85;;
85001;SDS011;75323;31.624;-8.002;2024-03-25T10:03:30;9.45;;;5.32;;
85001;SDS011;75323;31.624;-8.002;2024-03-25T10:05:56;12.02;;;5.50;;
85001;SDS011;75323;31.624;-8.002;2024-03-25T10:08:22;10.32;;;4.65;;
85001;SDS011;75323;31.624;-8.002;2024-03-25T10:10:48;10.80;;;4.22;;
85001;SDS011;75323;31.624;-8.002;2024-03-25T10:13:15;13.32;;;6.15;;
85001;SDS011;75323;31.624;-8.002;2024-03-25T10:15:41;11.85;;;5.25;;
85001;SDS011;75323;31.624;-8.002;2024-03-25T10:18:07;12.30;;;3.38;;
85001;SDS011;75323;31.624;-8.002;2024-03-25T10:20:33;10.73;;;4.78;;
85001;SDS011;75323;31.624;-8.002;2024-03-25T10:23:00;10.68;;;4.93;;
85001;SDS011;75323;31.624;-8.002;2024-03-25T10:25:26;12.23;;;5.72;;
85001;SDS011;75323;31.624;-8.002;2024-03-25T10:27:58;13.30;;;4.05;;
85001;SDS011;75323;31.624;-8.002;2024-03-25T10:30:25;7.57;;;3.50;;
85001;SDS011;75323;31.624;-8.002;2024-03-25T10:33:05;6.53;;;4.22;;
85001;SDS011;75323;31.624;-8.002;2024-03-25T10:35:37;5.93;;;3.97;;
85001;SDS011;75323;31.624;-8.002;2024-03-25T10:38:04;5.68;;;3.17;;
85001;SDS011;75323;31.624;-8.002;2024-03-25T10:40:31;11.13;;;5.03;;
85001;SDS011;75323;31.624;-8.002;2024-03-25T10:43:06;10.60;;;3.72;;
85001;SDS011;75323;31.624;-8.002;2024-03-25T10:45:34;10.75;;;4.00;;
85001;SDS011;75323;31.624;-8.002;2024-03-25T10:48:06;6.50;;;3.55;;
85001;SDS011;75323;31.624;-8.002;2024-03-25T10:50:51;6.93;;;3.78;;
85001;SDS011;75323;31.624;-8.002;2024-03-25T10:53:20;7.75;;;3.97;;
85001;SDS011;75323;31.624;-8.002;2024-03-25T10:55:46;7.00;;;4.05;;
85001;SDS011;75323;31.624;-8.002;2024-03-25T10:58:15;7.88;;;4.78;;
85001;SDS011;75323;31.624;-8.002;2024-03-25T11:00:42;7.45;;;2.60;;
85001;SDS011;75323;31.624;-8.002;2024-03-25T11:03:09;14.63;;;5.10;;
85001;SDS011;75323;31.624;-8.002;2024-03-25T11:05:35;9.30;;;3.75;;
85001;SDS011;75323;31.624;-8.002;2024-03-25T11:08:14;4.18;;;3.17;;
85001;SDS011;75323;31.624;-8.002;2024-03-25T11:10:41;10.15;;;4.38;;
85001;SDS011;75323;31.624;-8.002;2024-03-25T11:13:11;8.40;;;3.72;;
85001;SDS011;75323;31.624;-8.002;2024-03-25T11:15:37;10.50;;;2.80;;
85001;SDS011;75323;31.624;-8.002;2024-03-25T11:18:12;8.98;;;3.22;;
85001;SDS011;75323;31.624;-8.002;2024-03-25T11:20:38;5.97;;;3.28;;
85001;SDS011;75323;31.624;-8.002;2024-03-25T11:23:11;10.50;;;3.40;;
85001;SDS011;75323;31.624;-8.002;2024-03-25T11:25:38;8.63;;;2.85;;
85001;SDS011;75323;31.624;-8.002;2024-03-25T11:28:04;8.27;;;2.92;;
85001;SDS011;75323;31.624;-8.002;2024-03-25T11:30:30;6.03;;;3.28;;
85001;SDS011;75323;31.624;-8.002;2024-03-25T11:32:57;7.32;;;3.03;;
85001;SDS011;75323;31.624;-8.002;2024-03-25T11:35:24;9.63;;;3.45;;
85001;SDS011;75323;31.624;-8.002;2024-03-25T11:37:50;6.25;;;2.95;;
85001;SDS011;75323;31.624;-8.002;2024-03-25T11:40:17;8.63;;;3.70;;
85001;SDS011;75323;31.624;-8.002;2024-03-25T11:42:44;11.50;;;3.88;;
85001;SDS011;75323;31.624;-8.002;2024-03-25T11:45:20;8.23;;;3.97;;
85001;SDS011;75323;31.624;-8.002;2024-03-25T11:47:48;5.88;;;3.80;;
85001;SDS011;75323;31.624;-8.002;2024-03-25T11:50:15;8.75;;;4.35;;
85001;SDS011;75323;31.624;-8.002;2024-03-25T11:52:42;10.95;;;2.58;;
85001;SDS011;75323;31.624;-8.002;2024-03-25T11:55:08;11.82;;;3.25;;
85001;SDS011;75323;31.624;-8.002;2024-03-25T11:57:35;9.13;;;3.05;;
85001;SDS011;75323;31.624;-8.002;2024-03-25T12:00:02;8.00;;;4.32;;
85001;SDS011;75323;31.624;-8.002;2024-03-25T12:02:32;11.50;;;2.47;;
85001;SDS011;75323;31.624;-8.002;2024-03-25T12:04:58;15.35;;;4.10;;
85001;SDS011;75323;31.624;-8.002;2024-03-25T12:07:24;10.75;;;4.78;;
85001;SDS011;75323;31.624;-8.002;2024-03-25T12:09:49;11.70;;;4.85;;
85001;SDS011;75323;31.624;-8.002;2024-03-25T12:12:34;10.82;;;4.15;;
85001;SDS011;75323;31.624;-8.002;2024-03-25T12:15:00;8.15;;;2.80;;
85001;SDS011;75323;31.624;-8.002;2024-03-25T12:17:28;12.68;;;3.53;;
85001;SDS011;75323;31.624;-8.002;2024-03-25T12:20:04;8.00;;;5.15;;
85001;SDS011;75323;31.624;-8.002;2024-03-25T12:22:32;9.75;;;4.75;;
85001;SDS011;75323;31.624;-8.002;2024-03-25T12:25:00;12.60;;;4.85;;
85001;SDS011;75323;31.624;-8.002;2024-03-25T12:27:30;18.30;;;6.10;;
85001;SDS011;75323;31.624;-8.002;2024-03-25T12:30:08;9.60;;;4.78;;
85001;SDS011;75323;31.624;-8.002;2024-03-25T12:32:38;12.45;;;4.95;;
85001;SDS011;75323;31.624;-8.002;2024-03-25T12:35:08;12.90;;;4.40;;
85001;SDS011;75323;31.624;-8.002;2024-03-25T12:37:44;8.93;;;4.45;;
85001;SDS011;75323;31.624;-8.002;2024-03-25T12:40:11;10.73;;;5.65;;
85001;SDS011;75323;31.624;-8.002;2024-03-25T12:42:54;14.45;;;4.53;;
85001;SDS011;75323;31.624;-8.002;2024-03-25T12:45:20;8.63;;;4.72;;
85001;SDS011;75323;31.624;-8.002;2024-03-25T12:47:48;8.52;;;4.57;;
85001;SDS011;75323;31.624;-8.002;2024-03-25T12:50:14;11.10;;;4.25;;
85001;SDS011;75323;31.624;-8.002;2024-03-25T12:52:40;9.30;;;5.13;;
85001;SDS011;75323;31.624;-8.002;2024-03-25T12:55:05;14.13;;;5.68;;
85001;SDS011;75323;31.624;-8.002;2024-03-25T12:57:31;13.15;;;5.80;;
85001;SDS011;75323;31.624;-8.002;2024-03-25T12:59:57;12.40;;;5.50;;
85001;SDS011;75323;31.624;-8.002;2024-03-25T13:02:23;10.85;;;5.00;;
85001;SDS011;75323;31.624;-8.002;2024-03-25T13:04:49;14.63;;;6.68;;
85001;SDS011;75323;31.624;-8.002;2024-03-25T13:07:15;10.25;;;4.10;;
85001;SDS011;75323;31.624;-8.002;2024-03-25T13:09:41;14.85;;;4.40;;
85001;SDS011;75323;31.624;-8.002;2024-03-25T13:12:07;14.75;;;7.00;;
85001;SDS011;75323;31.624;-8.002;2024-03-25T13:14:32;9.50;;;5.43;;
85001;SDS011;75323;31.624;-8.002;2024-03-25T13:16:58;14.93;;;6.03;;
85001;SDS011;75323;31.624;-8.002;2024-03-25T13:19:24;12.35;;;6.25;;
85001;SDS011;75323;31.624;-8.002;2024-03-25T13:21:53;15.13;;;5.75;;
85001;SDS011;75323;31.624;-8.002;2024-03-25T13:24:20;12.52;;;6.40;;
85001;SDS011;75323;31.624;-8.002;2024-03-25T13:26:46;11.95;;;6.15;;
85001;SDS011;75323;31.624;-8.002;2024-03-25T13:29:12;14.20;;;5.57;;
85001;SDS011;75323;31.624;-8.002;2024-03-25T13:31:37;12.93;;;7.20;;
85001;SDS011;75323;31.624;-8.002;2024-03-25T13:34:03;13.35;;;6.45;;
85001;SDS011;75323;31.624;-8.002;2024-03-25T13:36:29;17.70;;;6.43;;
85001;SDS011;75323;31.624;-8.002;2024-03-25T13:38:55;13.57;;;4.88;;
85001;SDS011;75323;31.624;-8.002;2024-03-25T13:41:30;7.63;;;5.00;;
85001;SDS011;75323;31.624;-8.002;2024-03-25T13:43:55;10.57;;;4.47;;
85001;SDS011;75323;31.624;-8.002;2024-03-25T13:46:21;10.07;;;4.43;;
85001;SDS011;75323;31.624;-8.002;2024-03-25T13:48:47;12.90;;;5.35;;
85001;SDS011;75323;31.624;-8.002;2024-03-25T13:51:13;7.88;;;3.83;;
85001;SDS011;75323;31.624;-8.002;2024-03-25T13:53:39;8.68;;;4.40;;
85001;SDS011;75323;31.624;-8.002;2024-03-25T13:56:05;14.38;;;5.20;;
85001;SDS011;75323;31.624;-8.002;2024-03-25T13:58:31;15.85;;;5.10;;
85001;SDS011;75323;31.624;-8.002;2024-03-25T14:00:57;12.10;;;5.55;;
85001;SDS011;75323;31.624;-8.002;2024-03-25T14:03:23;9.45;;;4.00;;
85001;SDS011;75323;31.624;-8.002;2024-03-25T14:05:48;12.32;;;5.68;;
85001;SDS011;75323;31.624;-8.002;2024-03-25T14:08:14;13.32;;;3.80;;
85001;SDS011;75323;31.624;-8.002;2024-03-25T14:10:42;9.82;;;4.70;;
85001;SDS011;75323;31.624;-8.002;2024-03-25T14:13:08;16.42;;;5.78;;
85001;SDS011;75323;31.624;-8.002;2024-03-25T14:15:34;9.77;;;4.63;;
85001;SDS011;75323;31.624;-8.002;2024-03-25T14:18:00;12.00;;;6.28;;
85001;SDS011;75323;31.624;-8.002;2024-03-25T14:20:26;16.10;;;5.55;;
85001;SDS011;75323;31.624;-8.002;2024-03-25T14:22:52;11.85;;;4.13;;
85001;SDS011;75323;31.624;-8.002;2024-03-25T14:25:18;8.60;;;4.68;;
85001;SDS011;75323;31.624;-8.002;2024-03-25T14:27:44;12.77;;;5.28;;